Time;durP1;ratioP1;P1;durP2;ratioP2;P2;SDS_P1;SDS_P2;PMS_P1;PMS_P2;Temp;Humidity;BMP_temperature;BMP_pressure;BME280_temperature;BME280_humidity;BME280_pressure;Samples;Min_cycle;Max_cycle;Signal;HPM_P1;HPM_P2
2023/07/08 00:00:41;;;;;;;10.60;6.88;;;23.70;37.70;;;;;;4980133;28;20510;-53
2023/07/08 00:03:09;;;;;;;12.38;7.35;;;23.70;37.70;;;;;;4980642;28;20498;-57
2023/07/08 00:05:37;;;;;;;11.20;6.97;;;23.70;37.90;;;;;;4976823;28;20085;-55
2023/07/08 00:08:04;;;;;;;10.93;6.93;;;23.60;37.90;;;;;;4978374;28;20487;-58
2023/07/08 00:10:31;;;;;;;13.73;6.80;;;23.60;37.80;;;;;;4981323;28;20506;-56
2023/07/08 00:12:59;;;;;;;11.43;6.65;;;23.50;37.90;;;;;;4980832;28;20054;-57
2023/07/08 00:15:32;;;;;;;9.70;6.38;;;23.50;38.10;;;;;;4980739;28;20494;-54
2023/07/08 00:17:59;;;;;;;9.85;6.22;;;23.50;38.30;;;;;;4980346;28;20130;-54
2023/07/08 00:20:33;;;;;;;9.90;6.60;;;23.40;38.40;;;;;;4981063;28;20610;-57
2023/07/08 00:23:01;;;;;;;11.70;6.80;;;23.40;38.70;;;;;;4981300;28;20482;-54
2023/07/08 00:25:28;;;;;;;9.98;6.32;;;23.40;38.70;;;;;;4982777;28;20055;-56
2023/07/08 00:27:55;;;;;;;13.68;6.50;;;23.40;38.60;;;;;;4977516;28;20482;-55
2023/07/08 00:30:25;;;;;;;10.85;6.80;;;23.30;38.50;;;;;;4979318;28;20668;-56
2023/07/08 00:32:54;;;;;;;9.93;6.88;;;23.20;38.40;;;;;;4981435;28;20605;-53
2023/07/08 00:35:23;;;;;;;10.32;6.65;;;23.20;38.40;;;;;;4981534;28;20054;-56
2023/07/08 00:37:53;;;;;;;11.52;6.93;;;23.20;38.40;;;;;;4978389;28;20054;-56
2023/07/08 00:40:22;;;;;;;9.20;6.25;;;23.20;38.60;;;;;;4977989;28;20399;-56
2023/07/08 00:42:50;;;;;;;9.15;6.10;;;23.20;38.60;;;;;;4974226;28;20050;-55
2023/07/08 00:45:36;;;;;;;10.98;6.45;;;23.10;38.70;;;;;;4981439;28;21192;-53
2023/07/08 00:48:18;;;;;;;9.07;5.90;;;23.10;38.80;;;;;;4980766;28;20061;-56
2023/07/08 00:50:46;;;;;;;11.68;6.80;;;23.10;38.80;;;;;;4977741;28;20051;-59
2023/07/08 00:53:24;;;;;;;10.73;6.22;;;23.10;38.80;;;;;;4980782;28;20069;-55
2023/07/08 00:55:52;;;;;;;9.80;6.63;;;23.00;38.90;;;;;;4980369;28;20069;-55
2023/07/08 00:58:22;;;;;;;9.48;6.57;;;23.10;38.90;;;;;;4978492;28;20050;-55
2023/07/08 01:00:50;;;;;;;9.73;6.63;;;23.10;39.10;;;;;;4978439;28;20057;-60
2023/07/08 01:03:20;;;;;;;9.23;5.95;;;23.00;39.10;;;;;;5004642;23;20066;-54
2023/07/08 01:05:48;;;;;;;9.98;6.63;;;23.00;39.20;;;;;;4994032;28;20068;-57
2023/07/08 01:08:15;;;;;;;9.95;6.25;;;23.00;39.20;;;;;;4998086;28;20080;-51
2023/07/08 01:10:48;;;;;;;11.02;6.57;;;23.00;39.30;;;;;;4993359;28;20528;-51
2023/07/08 01:13:17;;;;;;;11.52;7.22;;;23.00;39.30;;;;;;4985725;28;20056;-55
2023/07/08 01:15:48;;;;;;;14.02;7.55;;;23.00;39.30;;;;;;4988263;28;20485;-55
2023/07/08 01:18:20;;;;;;;10.05;6.55;;;23.00;39.20;;;;;;4988054;28;20421;-55
2023/07/08 01:20:48;;;;;;;10.20;6.63;;;22.90;39.00;;;;;;4984153;28;20045;-54
2023/07/08 01:23:17;;;;;;;12.45;7.20;;;22.90;39.00;;;;;;4984484;28;20403;-58
2023/07/08 01:25:46;;;;;;;10.65;6.85;;;22.90;39.00;;;;;;4989484;28;20482;-55
2023/07/08 01:28:14;;;;;;;11.40;6.72;;;22.90;39.00;;;;;;4991579;28;20054;-54
2023/07/08 01:30:43;;;;;;;10.90;6.00;;;22.90;39.00;;;;;;4988487;28;20057;-52
2023/07/08 01:33:18;;;;;;;9.65;6.45;;;22.90;39.10;;;;;;4990591;28;20417;-57
2023/07/08 01:35:46;;;;;;;9.25;5.93;;;22.80;39.20;;;;;;4992018;28;20800;-54
2023/07/08 01:38:18;;;;;;;8.98;6.28;;;22.80;39.20;;;;;;4988796;28;20517;-55
2023/07/08 01:40:53;;;;;;;10.55;6.03;;;22.80;39.30;;;;;;4989001;28;20049;-58
2023/07/08 01:43:20;;;;;;;9.52;6.30;;;22.80;39.50;;;;;;4990288;28;20062;-55
2023/07/08 01:45:49;;;;;;;10.27;6.30;;;22.80;39.50;;;;;;4992977;28;20066;-57
2023/07/08 01:48:19;;;;;;;8.95;5.82;;;22.80;39.60;;;;;;4991763;28;20051;-52
2023/07/08 01:50:50;;;;;;;8.43;6.25;;;22.80;39.60;;;;;;4991824;28;20540;-57
2023/07/08 01:53:21;;;;;;;11.35;6.32;;;22.80;39.70;;;;;;4988461;28;20065;-54
2023/07/08 01:55:48;;;;;;;8.73;5.90;;;22.80;39.70;;;;;;4995189;28;20451;-56
2023/07/08 01:58:15;;;;;;;8.35;5.75;;;22.80;39.70;;;;;;4991646;28;20053;-55
2023/07/08 02:00:43;;;;;;;8.43;5.68;;;22.70;39.70;;;;;;4990407;28;20050;-56
2023/07/08 02:03:10;;;;;;;10.18;6.53;;;22.70;39.70;;;;;;4996684;28;20054;-54
2023/07/08 02:05:38;;;;;;;7.95;5.47;;;22.70;39.70;;;;;;4993902;28;20057;-52
2023/07/08 02:08:05;;;;;;;7.32;5.05;;;22.70;39.70;;;;;;4992186;28;20058;-58
2023/07/08 02:10:34;;;;;;;8.90;5.75;;;22.70;39.70;;;;;;4991753;28;20493;-57
2023/07/08 02:13:01;;;;;;;10.10;5.90;;;22.70;39.70;;;;;;4985957;28;20054;-56
2023/07/08 02:15:28;;;;;;;8.93;5.25;;;22.60;39.70;;;;;;4993324;28;20057;-58
2023/07/08 02:17:56;;;;;;;8.35;5.60;;;22.60;39.60;;;;;;4991583;28;20409;-58
2023/07/08 02:20:23;;;;;;;10.30;5.88;;;22.60;39.60;;;;;;4994618;28;20059;-57
2023/07/08 02:22:51;;;;;;;9.38;5.90;;;22.60;39.70;;;;;;4993585;28;20418;-58
2023/07/08 02:25:18;;;;;;;9.70;5.90;;;22.60;39.80;;;;;;4990955;28;20061;-49
2023/07/08 02:27:47;;;;;;;8.75;6.15;;;22.60;39.80;;;;;;4996022;28;20069;-55
2023/07/08 02:30:14;;;;;;;8.60;5.13;;;22.60;39.70;;;;;;4996634;28;20046;-55
2023/07/08 02:32:48;;;;;;;10.68;6.00;;;22.60;39.70;;;;;;4998247;28;20054;-53
2023/07/08 02:35:15;;;;;;;;;;;22.60;39.80;;;;;;4998098;28;20509;-50
2023/07/08 02:37:42;;;;;;;9.90;5.45;;;22.60;39.60;;;;;;5000293;28;20296;-56
2023/07/08 02:40:11;;;;;;;10.70;5.80;;;22.60;39.60;;;;;;4994682;28;20056;-56
2023/07/08 02:42:38;;;;;;;7.95;5.45;;;22.60;39.70;;;;;;5000347;28;20058;-54
2023/07/08 02:48:29;;;;;;;8.00;5.45;;;22.60;39.90;;;;;;5004092;28;20049;-54
2023/07/08 02:51:12;;;;;;;9.15;5.65;;;22.50;40.00;;;;;;4998254;28;20064;-53
2023/07/08 02:53:39;;;;;;;7.70;5.00;;;22.50;40.30;;;;;;5002556;28;20085;-54
2023/07/08 02:56:06;;;;;;;10.57;5.20;;;22.50;40.30;;;;;;4997178;28;20064;-51
2023/07/08 02:58:34;;;;;;;10.50;5.63;;;22.50;40.40;;;;;;4994128;28;20059;-50
2023/07/08 03:01:01;;;;;;;9.73;5.90;;;22.40;40.50;;;;;;4994727;28;20068;-50
2023/07/08 03:03:30;;;;;;;9.05;5.13;;;22.40;40.50;;;;;;4996644;28;20049;-51
2023/07/08 03:05:59;;;;;;;8.63;5.32;;;22.40;40.60;;;;;;4999539;28;20053;-50
2023/07/08 03:08:26;;;;;;;6.68;4.50;;;22.40;40.60;;;;;;5000380;28;20134;-52
2023/07/08 03:14:44;;;;;;;8.68;4.78;;;22.30;40.70;;;;;;5000253;28;20057;-55
2023/07/08 03:17:12;;;;;;;7.97;4.90;;;22.30;40.80;;;;;;4959707;28;20069;-57
2023/07/08 03:19:40;;;;;;;6.97;4.72;;;22.30;40.70;;;;;;4960815;28;20506;-58
2023/07/08 03:22:08;;;;;;;6.15;4.50;;;22.20;40.90;;;;;;4960648;28;20062;-57
2023/07/08 03:24:36;;;;;;;6.60;4.60;;;22.20;40.90;;;;;;4962772;28;20497;-56
2023/07/08 03:27:04;;;;;;;8.52;5.13;;;22.20;40.90;;;;;;4961929;28;20151;-57
2023/07/08 03:29:32;;;;;;;8.75;5.43;;;22.20;40.90;;;;;;4961622;28;20050;-54
2023/07/08 03:31:59;;;;;;;8.00;5.03;;;22.10;40.70;;;;;;4961300;28;20066;-48
2023/07/08 03:34:26;;;;;;;8.98;5.45;;;22.10;40.70;;;;;;4960807;28;20062;-47
2023/07/08 03:36:55;;;;;;;9.70;5.20;;;22.10;40.70;;;;;;4960545;28;20069;-57
2023/07/08 03:39:23;;;;;;;7.97;5.22;;;22.10;40.70;;;;;;4958272;28;20051;-49
2023/07/08 03:41:52;;;;;;;8.25;5.38;;;22.10;40.80;;;;;;4960653;28;20047;-55
2023/07/08 03:44:19;;;;;;;8.43;5.40;;;22.10;40.80;;;;;;4962774;28;20059;-49
2023/07/08 03:46:49;;;;;;;8.32;5.15;;;22.00;40.80;;;;;;4961210;28;20053;-51
2023/07/08 03:49:19;;;;;;;8.02;5.25;;;22.00;40.90;;;;;;4960672;28;20487;-50
2023/07/08 03:51:46;;;;;;;8.55;4.97;;;22.00;40.90;;;;;;4961128;28;20054;-49
2023/07/08 03:54:16;;;;;;;7.60;5.13;;;22.00;41.00;;;;;;4960966;28;20057;-54
2023/07/08 03:56:43;;;;;;;8.85;5.10;;;22.00;41.10;;;;;;4961663;28;20050;-52
2023/07/08 03:59:11;;;;;;;7.28;5.28;;;22.00;41.20;;;;;;4961005;28;20059;-55
2023/07/08 04:01:40;;;;;;;7.43;5.22;;;22.00;41.20;;;;;;4959292;28;20054;-53
2023/07/08 04:04:11;;;;;;;9.00;5.10;;;22.00;41.20;;;;;;4953572;28;20066;-50
2023/07/08 04:06:39;;;;;;;6.78;5.05;;;22.00;41.20;;;;;;4951619;28;20050;-54
2023/07/08 04:09:06;;;;;;;7.80;4.95;;;22.00;41.10;;;;;;4959093;28;20059;-52
2023/07/08 04:11:35;;;;;;;8.30;4.72;;;21.90;41.00;;;;;;4952583;28;20051;-55
2023/07/08 04:14:03;;;;;;;7.40;4.57;;;21.90;41.00;;;;;;4962045;28;20074;-50
2023/07/08 04:16:32;;;;;;;8.15;5.05;;;21.90;41.00;;;;;;4955758;28;20046;-52
2023/07/08 04:19:01;;;;;;;7.85;5.20;;;21.90;41.00;;;;;;4959046;28;20074;-49
2023/07/08 04:21:30;;;;;;;6.68;4.85;;;21.90;41.00;;;;;;4960934;28;20510;-53
2023/07/08 04:23:57;;;;;;;11.38;5.30;;;21.90;40.90;;;;;;4951245;28;20051;-52
2023/07/08 04:26:24;;;;;;;10.27;4.85;;;22.00;41.00;;;;;;4956409;28;20051;-52
2023/07/08 04:28:52;;;;;;;8.35;5.55;;;21.90;41.00;;;;;;4952939;28;21319;-52
2023/07/08 04:31:20;;;;;;;6.63;4.25;;;21.90;41.20;;;;;;4946929;28;20105;-55
2023/07/08 04:33:47;;;;;;;8.05;4.93;;;22.00;41.30;;;;;;4956726;28;20497;-52
2023/07/08 04:36:15;;;;;;;10.18;4.95;;;21.90;41.50;;;;;;4958132;28;20533;-58
2023/07/08 04:38:46;;;;;;;9.60;5.00;;;21.90;41.60;;;;;;4960099;28;20051;-52
2023/07/08 04:41:13;;;;;;;7.70;4.68;;;21.90;41.80;;;;;;4959260;28;20062;-54
2023/07/08 04:43:41;;;;;;;7.72;5.05;;;21.90;41.80;;;;;;4958753;28;20066;-49
2023/07/08 04:46:19;;;;;;;8.55;5.78;;;21.90;41.80;;;;;;4958408;28;20054;-52
2023/07/08 04:48:48;;;;;;;9.05;5.28;;;21.90;42.50;;;;;;4959845;28;20055;-52
2023/07/08 04:51:15;;;;;;;9.25;5.05;;;21.90;41.90;;;;;;4956467;28;20450;-57
2023/07/08 04:53:42;;;;;;;7.53;4.75;;;21.90;41.90;;;;;;4962181;28;20612;-55
2023/07/08 04:56:09;;;;;;;7.43;4.97;;;21.90;41.90;;;;;;4958475;28;20484;-54
2023/07/08 04:58:36;;;;;;;9.23;5.25;;;21.90;41.90;;;;;;4960354;28;20102;-53
2023/07/08 05:01:03;;;;;;;7.00;4.40;;;21.90;42.00;;;;;;4958343;28;20058;-54
2023/07/08 05:03:32;;;;;;;9.02;5.00;;;21.90;42.10;;;;;;4960838;28;20081;-53
2023/07/08 05:05:59;;;;;;;6.80;4.43;;;21.90;42.10;;;;;;4955112;28;20058;-52
2023/07/08 05:08:26;;;;;;;7.75;4.90;;;21.90;42.30;;;;;;4955795;28;20349;-53
2023/07/08 05:10:53;;;;;;;7.80;4.97;;;21.90;42.40;;;;;;4954264;28;20060;-54
2023/07/08 05:13:21;;;;;;;11.02;4.95;;;21.90;42.40;;;;;;4960964;28;20055;-55
2023/07/08 05:15:49;;;;;;;6.75;4.40;;;21.90;42.40;;;;;;4959531;28;20059;-56
2023/07/08 05:18:16;;;;;;;8.13;5.05;;;22.00;42.70;;;;;;4962552;28;20047;-51
2023/07/08 05:20:51;;;;;;;7.88;4.85;;;22.00;42.30;;;;;;4959484;28;20054;-52
2023/07/08 05:23:18;;;;;;;6.75;4.20;;;22.00;42.30;;;;;;4961474;28;20081;-51
2023/07/08 05:25:49;;;;;;;7.30;4.50;;;22.00;42.20;;;;;;4957912;28;20047;-57
2023/07/08 05:28:16;;;;;;;8.55;4.65;;;22.00;42.10;;;;;;4957547;28;20422;-52
2023/07/08 05:30:43;;;;;;;7.72;5.32;;;22.00;42.20;;;;;;4962110;28;20483;-56
2023/07/08 05:33:10;;;;;;;9.38;5.10;;;22.00;42.20;;;;;;4961814;28;20513;-56
2023/07/08 05:35:38;;;;;;;7.78;5.03;;;22.00;42.20;;;;;;4961137;28;20059;-56
2023/07/08 05:38:06;;;;;;;6.50;4.60;;;22.00;42.30;;;;;;4960284;28;20065;-56
2023/07/08 05:40:33;;;;;;;7.20;5.25;;;22.10;42.20;;;;;;4960037;28;20058;-52
2023/07/08 05:43:01;;;;;;;10.93;5.20;;;22.10;42.20;;;;;;4958161;28;20051;-52
2023/07/08 05:45:28;;;;;;;8.95;4.88;;;22.20;42.30;;;;;;4961336;28;20114;-50
2023/07/08 05:47:55;;;;;;;7.82;4.97;;;22.20;42.30;;;;;;4961956;28;20062;-50
2023/07/08 05:50:22;;;;;;;8.15;4.97;;;22.20;42.30;;;;;;4964842;28;20077;-48
2023/07/08 05:52:50;;;;;;;9.65;5.07;;;22.30;42.10;;;;;;4964632;28;20414;-48
2023/07/08 05:55:18;;;;;;;8.65;5.03;;;22.30;42.20;;;;;;4965201;28;20074;-49
2023/07/08 05:57:45;;;;;;;6.85;4.50;;;22.40;42.20;;;;;;4963918;28;20055;-49
2023/07/08 06:00:14;;;;;;;7.05;4.75;;;22.40;42.30;;;;;;4962858;28;20051;-53
2023/07/08 06:02:41;;;;;;;7.72;4.82;;;22.50;42.40;;;;;;4964276;28;20062;-46
2023/07/08 06:05:09;;;;;;;8.65;4.72;;;22.60;42.40;;;;;;4961700;28;20061;-46
2023/07/08 06:07:36;;;;;;;8.18;5.25;;;22.60;42.50;;;;;;4963061;28;20062;-47
2023/07/08 06:10:04;;;;;;;10.60;5.32;;;22.70;42.40;;;;;;4963278;28;20058;-48
2023/07/08 06:12:32;;;;;;;10.77;5.13;;;22.80;42.40;;;;;;4961755;28;20055;-52
2023/07/08 06:14:59;;;;;;;10.52;5.40;;;22.80;42.20;;;;;;4963049;28;20059;-51
2023/07/08 06:17:27;;;;;;;8.85;4.63;;;22.90;42.30;;;;;;4963629;28;20609;-48
2023/07/08 06:19:54;;;;;;;8.48;4.93;;;22.90;42.10;;;;;;4958033;28;20097;-51
2023/07/08 06:22:21;;;;;;;11.68;5.63;;;23.00;42.00;;;;;;4963428;28;20063;-54
2023/07/08 06:24:48;;;;;;;8.63;4.95;;;23.00;41.90;;;;;;4965935;28;20050;-46
2023/07/08 06:27:16;;;;;;;8.18;5.50;;;23.10;41.90;;;;;;4962176;28;20074;-50
2023/07/08 06:29:45;;;;;;;8.77;4.70;;;23.10;41.80;;;;;;4967274;28;20428;-53
2023/07/08 06:32:12;;;;;;;7.95;5.45;;;23.20;41.90;;;;;;4966013;28;20479;-53
2023/07/08 06:34:40;;;;;;;8.23;5.28;;;23.20;41.90;;;;;;4963479;28;20051;-45
2023/07/08 06:37:07;;;;;;;9.32;5.22;;;23.30;41.80;;;;;;4962413;28;20059;-47
2023/07/08 06:39:34;;;;;;;7.72;5.28;;;23.30;41.60;;;;;;4965887;28;20406;-45
2023/07/08 06:42:01;;;;;;;8.32;4.93;;;23.30;41.70;;;;;;4964347;28;20062;-48
2023/07/08 06:44:29;;;;;;;7.68;5.13;;;23.40;41.70;;;;;;4964318;28;20054;-52
2023/07/08 06:46:57;;;;;;;6.93;5.22;;;23.50;41.70;;;;;;4965017;28;20054;-45
2023/07/08 06:49:24;;;;;;;8.55;5.05;;;23.50;41.50;;;;;;4957781;28;20055;-49
2023/07/08 06:51:52;;;;;;;10.07;5.18;;;23.60;41.50;;;;;;4961907;28;20059;-47
2023/07/08 06:54:19;;;;;;;9.75;5.40;;;23.60;41.40;;;;;;4962097;28;20050;-50
2023/07/08 06:56:46;;;;;;;9.73;5.55;;;23.70;41.40;;;;;;4960943;28;20520;-46
2023/07/08 06:59:13;;;;;;;7.45;4.90;;;23.70;41.10;;;;;;4962497;28;20522;-47
2023/07/08 07:01:40;;;;;;;8.45;5.72;;;23.80;41.20;;;;;;4960303;28;20059;-51
2023/07/08 07:04:09;;;;;;;8.23;5.40;;;23.80;41.20;;;;;;4959284;28;20330;-49
2023/07/08 07:06:36;;;;;;;8.13;5.30;;;23.90;40.90;;;;;;4957732;28;20058;-51
2023/07/08 07:09:03;;;;;;;7.90;5.03;;;24.00;41.20;;;;;;4962953;28;20514;-57
2023/07/08 07:11:31;;;;;;;7.00;4.95;;;24.00;41.20;;;;;;4958788;28;20058;-56
2023/07/08 07:13:58;;;;;;;10.45;5.10;;;24.10;41.30;;;;;;4961819;28;20495;-46
2023/07/08 07:16:25;;;;;;;7.60;4.90;;;24.20;41.00;;;;;;4963264;28;20047;-51
2023/07/08 07:18:52;;;;;;;8.35;5.47;;;24.30;41.00;;;;;;4961323;28;20047;-56
2023/07/08 07:21:21;;;;;;;7.20;4.78;;;24.40;40.90;;;;;;4949445;28;20518;-57
2023/07/08 07:23:48;;;;;;;8.60;5.07;;;24.40;40.70;;;;;;4957410;28;20064;-56
2023/07/08 07:26:16;;;;;;;7.72;5.05;;;24.50;41.00;;;;;;4960784;28;20054;-56
2023/07/08 07:28:43;;;;;;;8.63;5.18;;;24.60;41.10;;;;;;4960791;28;20050;-56
2023/07/08 07:31:10;;;;;;;6.13;4.70;;;24.70;41.20;;;;;;4960628;28;20059;-50
2023/07/08 07:33:38;;;;;;;7.25;4.60;;;24.80;41.10;;;;;;4961498;28;20143;-54
2023/07/08 07:36:06;;;;;;;6.97;4.38;;;24.90;41.80;;;;;;4957089;28;20078;-55
2023/07/08 07:38:35;;;;;;;9.63;4.80;;;25.00;41.50;;;;;;4963059;28;20062;-52
2023/07/08 07:41:05;;;;;;;8.32;4.97;;;25.10;41.30;;;;;;4960382;28;20062;-52
2023/07/08 07:43:33;;;;;;;9.77;5.13;;;25.10;41.20;;;;;;4958984;28;20518;-47
2023/07/08 07:46:01;;;;;;;8.57;4.95;;;25.20;41.20;;;;;;4962919;28;20062;-48
2023/07/08 07:48:28;;;;;;;8.05;5.10;;;25.20;41.10;;;;;;4959965;28;20047;-51
2023/07/08 07:50:55;;;;;;;9.15;5.30;;;25.30;41.10;;;;;;4962042;28;20459;-47
2023/07/08 07:53:22;;;;;;;8.35;5.13;;;25.40;41.20;;;;;;4956759;28;20065;-57
2023/07/08 07:55:57;;;;;;;14.05;5.78;;;25.40;41.40;;;;;;4961236;28;20047;-55
2023/07/08 07:58:24;;;;;;;8.98;5.30;;;25.50;41.60;;;;;;4959741;28;20054;-49
2023/07/08 08:00:51;;;;;;;6.05;4.65;;;25.50;41.40;;;;;;4956619;28;20423;-48
2023/07/08 08:03:20;;;;;;;8.52;4.85;;;25.60;41.30;;;;;;4956729;28;20061;-45
2023/07/08 08:05:47;;;;;;;7.40;4.70;;;25.60;41.10;;;;;;4959468;28;20058;-50
2023/07/08 08:08:14;;;;;;;7.78;4.95;;;25.60;40.70;;;;;;4957688;28;20066;-51
2023/07/08 08:10:43;;;;;;;9.88;5.00;;;25.70;40.50;;;;;;4959757;28;20051;-49
2023/07/08 08:13:11;;;;;;;8.15;4.97;;;25.80;40.20;;;;;;4959979;28;20046;-52
2023/07/08 08:15:39;;;;;;;6.57;4.90;;;25.80;40.30;;;;;;4958206;28;20074;-57
2023/07/08 08:18:06;;;;;;;8.02;5.13;;;25.90;40.70;;;;;;4959716;28;20135;-51
2023/07/08 08:20:34;;;;;;;7.45;4.68;;;25.90;40.50;;;;;;4956181;28;20055;-51
2023/07/08 08:23:01;;;;;;;8.00;4.90;;;26.00;40.50;;;;;;4956345;28;20058;-49
2023/07/08 08:25:28;;;;;;;7.45;4.80;;;26.10;40.30;;;;;;4958231;28;20055;-48
2023/07/08 08:27:56;;;;;;;7.28;4.97;;;26.10;41.10;;;;;;4960247;28;20046;-54
2023/07/08 08:30:25;;;;;;;8.05;4.90;;;26.20;40.50;;;;;;4961753;28;20050;-48
2023/07/08 08:32:52;;;;;;;5.60;3.75;;;26.30;40.50;;;;;;4959887;28;20386;-46
2023/07/08 08:35:19;;;;;;;5.97;4.18;;;26.40;40.80;;;;;;4957169;28;20065;-55
2023/07/08 08:37:47;;;;;;;7.35;4.20;;;26.40;40.70;;;;;;4960094;28;20065;-54
2023/07/08 08:40:16;;;;;;;6.55;4.63;;;26.50;40.40;;;;;;4959912;28;20550;-53
2023/07/08 08:42:48;;;;;;;6.88;4.60;;;26.60;40.50;;;;;;4958655;28;20050;-49
2023/07/08 08:45:20;;;;;;;7.68;4.63;;;26.70;40.30;;;;;;4960335;28;20059;-54
2023/07/08 08:47:54;;;;;;;7.53;4.82;;;26.80;40.20;;;;;;4960070;28;20046;-49
2023/07/08 08:50:32;;;;;;;8.77;4.78;;;26.90;40.20;;;;;;4959869;28;20574;-49
2023/07/08 08:53:04;;;;;;;8.75;4.32;;;27.00;39.70;;;;;;4960900;28;20498;-46
2023/07/08 08:55:32;;;;;;;5.43;3.85;;;27.10;39.40;;;;;;4960118;28;20081;-53
2023/07/08 08:58:08;;;;;;;7.72;4.35;;;27.10;39.90;;;;;;4958206;28;20055;-52
2023/07/08 09:00:46;;;;;;;6.40;3.88;;;27.20;39.70;;;;;;4959462;28;20101;-47
2023/07/08 09:03:19;;;;;;;7.88;4.20;;;27.30;39.70;;;;;;4959385;28;20482;-57
2023/07/08 09:05:47;;;;;;;11.13;4.25;;;27.40;39.60;;;;;;4955827;28;20046;-49
2023/07/08 09:08:19;;;;;;;8.57;4.18;;;27.50;38.50;;;;;;4957468;28;20059;-47
2023/07/08 09:10:50;;;;;;;6.60;4.38;;;27.60;38.10;;;;;;4954010;28;20055;-53
2023/07/08 09:13:23;;;;;;;7.68;3.90;;;27.60;38.40;;;;;;4958453;28;20423;-51
2023/07/08 09:15:56;;;;;;;6.82;4.00;;;27.70;37.80;;;;;;4952707;28;20057;-54
2023/07/08 09:18:37;;;;;;;7.38;4.13;;;27.70;37.30;;;;;;4955267;28;20066;-57
2023/07/08 09:21:16;;;;;;;7.45;4.13;;;27.80;37.50;;;;;;4960007;28;20055;-58
2023/07/08 09:23:47;;;;;;;9.32;4.47;;;27.90;36.90;;;;;;4957277;28;20055;-55
2023/07/08 09:26:19;;;;;;;6.95;4.22;;;28.00;36.50;;;;;;4958487;28;20058;-48
2023/07/08 09:28:47;;;;;;;6.25;3.75;;;28.10;36.70;;;;;;4960334;28;20423;-51
2023/07/08 09:31:23;;;;;;;6.88;3.95;;;28.10;36.70;;;;;;4957060;28;20058;-57
2023/07/08 09:33:53;;;;;;;8.60;4.18;;;28.20;36.30;;;;;;4957646;28;20051;-58
2023/07/08 09:36:24;;;;;;;6.88;4.05;;;28.20;36.20;;;;;;4956965;28;20142;-57
2023/07/08 09:38:52;;;;;;;8.15;3.92;;;28.30;36.00;;;;;;4952756;28;20081;-57
2023/07/08 09:41:34;;;;;;;10.75;4.03;;;28.30;35.90;;;;;;4957080;28;20510;-49
2023/07/08 09:44:07;;;;;;;7.22;4.07;;;28.40;36.00;;;;;;4956350;28;20047;-53
2023/07/08 09:46:38;;;;;;;11.52;5.10;;;28.40;35.60;;;;;;4956705;28;20065;-46
2023/07/08 09:49:18;;;;;;;8.98;5.38;;;28.50;35.80;;;;;;4956035;28;20062;-54
2023/07/08 09:51:45;;;;;;;9.30;4.80;;;28.60;35.60;;;;;;4958114;28;20081;-58
2023/07/08 09:54:12;;;;;;;9.13;4.80;;;28.60;35.50;;;;;;4953909;28;20059;-51
2023/07/08 09:56:43;;;;;;;9.27;4.40;;;28.70;35.20;;;;;;4957318;28;20052;-58
2023/07/08 09:59:15;;;;;;;6.85;4.18;;;28.70;35.20;;;;;;4956947;28;20070;-52
2023/07/08 10:01:43;;;;;;;7.13;4.85;;;28.80;35.10;;;;;;4955400;28;20054;-52
2023/07/08 10:04:12;;;;;;;6.93;4.45;;;28.80;35.60;;;;;;4955423;28;20506;-50
2023/07/08 10:06:40;;;;;;;7.75;4.30;;;28.90;35.10;;;;;;4958608;28;20059;-53
2023/07/08 10:09:18;;;;;;;8.32;4.13;;;29.00;34.90;;;;;;4959950;28;20063;-49
2023/07/08 10:11:51;;;;;;;8.35;3.78;;;29.00;34.50;;;;;;4958270;28;20062;-51
2023/07/08 10:14:26;;;;;;;6.10;4.32;;;29.00;34.40;;;;;;4959360;28;20065;-48
2023/07/08 10:16:54;;;;;;;11.93;4.43;;;29.00;34.40;;;;;;4958609;28;20054;-49
2023/07/08 10:19:23;;;;;;;8.90;4.38;;;29.10;35.00;;;;;;4959151;28;20422;-48
2023/07/08 10:22:06;;;;;;;7.13;4.03;;;29.20;34.80;;;;;;4957474;28;20382;-48
2023/07/08 10:24:59;;;;;;;8.43;4.47;;;29.20;34.70;;;;;;4957939;28;20054;-49
2023/07/08 10:27:34;;;;;;;7.38;4.10;;;29.30;34.20;;;;;;4958750;28;20059;-46
2023/07/08 10:30:11;;;;;;;7.25;4.28;;;29.40;34.40;;;;;;4957378;28;20454;-51
2023/07/08 10:32:46;;;;;;;7.10;4.07;;;29.40;34.10;;;;;;4958090;28;20591;-50
2023/07/08 10:35:20;;;;;;;6.15;3.85;;;29.50;34.10;;;;;;4960584;28;20063;-51
2023/07/08 10:37:59;;;;;;;8.85;4.15;;;29.50;34.00;;;;;;4957468;28;20406;-57
2023/07/08 10:40:44;;;;;;;8.98;4.35;;;29.50;33.60;;;;;;4960278;28;20070;-56
2023/07/08 10:43:30;;;;;;;6.53;3.65;;;29.60;33.40;;;;;;4960490;28;20062;-45
2023/07/08 10:46:09;;;;;;;5.97;4.03;;;29.60;33.30;;;;;;4960452;28;20054;-55
2023/07/08 10:49:01;;;;;;;6.30;3.65;;;29.70;33.20;;;;;;4962454;28;20082;-56
2023/07/08 10:51:40;;;;;;;6.55;4.20;;;29.80;33.10;;;;;;4959325;28;20059;-58
2023/07/08 10:54:28;;;;;;;7.65;3.97;;;29.80;33.40;;;;;;4961778;28;20410;-47
2023/07/08 10:57:06;;;;;;;8.27;3.97;;;29.80;33.20;;;;;;4961889;28;20499;-52
2023/07/08 10:59:49;;;;;;;8.65;4.53;;;29.90;33.30;;;;;;4959640;28;20051;-55
2023/07/08 11:02:47;;;;;;;6.93;4.37;;;30.00;33.10;;;;;;4962714;28;20063;-56
2023/07/08 11:05:28;;;;;;;7.50;5.10;;;30.00;33.00;;;;;;4961905;28;20070;-55
2023/07/08 11:08:02;;;;;;;8.93;5.25;;;30.10;33.20;;;;;;4961762;28;20054;-56
2023/07/08 11:10:35;;;;;;;6.32;4.40;;;30.10;33.60;;;;;;4962258;28;20058;-49
2023/07/08 11:13:05;;;;;;;6.35;4.43;;;30.20;33.60;;;;;;4961291;28;20055;-51
2023/07/08 11:15:38;;;;;;;6.72;4.53;;;30.20;33.40;;;;;;4963819;28;20415;-56
2023/07/08 11:18:12;;;;;;;7.03;4.55;;;30.30;33.10;;;;;;4958069;28;20113;-45
2023/07/08 11:20:44;;;;;;;7.00;4.43;;;30.30;33.00;;;;;;4963314;28;20055;-56
2023/07/08 11:23:24;;;;;;;8.43;4.65;;;30.40;32.80;;;;;;4964457;28;20499;-55
2023/07/08 11:25:55;;;;;;;12.13;5.30;;;30.40;32.50;;;;;;4964765;28;20050;-54
2023/07/08 11:28:24;;;;;;;7.57;4.38;;;30.40;32.30;;;;;;4963378;28;20499;-59
2023/07/08 11:30:53;;;;;;;10.23;4.55;;;30.50;32.60;;;;;;4964036;28;20531;-58
2023/07/08 11:33:25;;;;;;;9.13;4.70;;;30.50;32.70;;;;;;4964063;28;20046;-58
2023/07/08 11:35:57;;;;;;;8.48;5.03;;;30.50;32.10;;;;;;4963341;28;20438;-57
2023/07/08 11:38:26;;;;;;;8.18;4.47;;;30.60;32.70;;;;;;4964118;28;20062;-57
2023/07/08 11:40:56;;;;;;;11.50;5.10;;;30.60;32.80;;;;;;4964730;28;20047;-57
2023/07/08 11:43:27;;;;;;;6.78;4.70;;;30.70;32.40;;;;;;4963354;28;20070;-57
2023/07/08 11:45:57;;;;;;;8.75;4.78;;;30.80;32.80;;;;;;4963995;28;20055;-57
2023/07/08 11:48:28;;;;;;;7.18;4.75;;;30.80;32.80;;;;;;4963932;28;20478;-58
2023/07/08 11:50:57;;;;;;;6.68;4.57;;;30.90;32.70;;;;;;4962943;28;20050;-57
2023/07/08 11:53:38;;;;;;;12.60;5.00;;;30.90;32.80;;;;;;4962471;28;20055;-58
2023/07/08 11:56:20;;;;;;;8.32;4.70;;;31.00;32.80;;;;;;4962513;28;20066;-59
2023/07/08 11:59:05;;;;;;;8.63;4.50;;;31.00;32.20;;;;;;4964557;28;20054;-56
2023/07/08 12:01:39;;;;;;;8.52;4.60;;;31.10;32.10;;;;;;4963617;28;20055;-57
2023/07/08 12:04:35;;;;;;;8.50;4.75;;;31.10;32.30;;;;;;4964058;28;20059;-56
2023/07/08 12:07:23;;;;;;;6.93;4.45;;;31.20;32.50;;;;;;4929783;28;20522;-58
2023/07/08 12:10:00;;;;;;;7.95;4.55;;;31.20;31.90;;;;;;4963890;28;20046;-57
2023/07/08 12:12:32;;;;;;;10.18;4.57;;;31.30;31.50;;;;;;4963048;28;20580;-58
2023/07/08 12:15:09;;;;;;;8.18;4.68;;;31.20;31.90;;;;;;4963443;28;20058;-57
2023/07/08 12:17:37;;;;;;;8.05;4.43;;;31.30;31.90;;;;;;4961444;28;20058;-56
2023/07/08 12:20:21;;;;;;;8.10;4.80;;;31.30;31.90;;;;;;4960657;28;20059;-54
2023/07/08 12:22:49;;;;;;;8.27;4.72;;;31.40;32.00;;;;;;4960952;28;20051;-57
2023/07/08 12:25:20;;;;;;;8.75;4.90;;;31.40;31.60;;;;;;4959202;28;20744;-58
2023/07/08 12:27:47;;;;;;;8.35;4.75;;;31.40;31.90;;;;;;4961372;28;20058;-57
2023/07/08 12:30:16;;;;;;;13.43;4.90;;;31.40;31.60;;;;;;4962583;28;20058;-57
2023/07/08 12:32:45;;;;;;;10.32;5.25;;;31.40;31.70;;;;;;4960007;28;20051;-55
2023/07/08 12:35:21;;;;;;;10.27;4.53;;;31.50;31.70;;;;;;4960047;28;20047;-58
2023/07/08 12:37:49;;;;;;;6.68;4.50;;;31.50;31.90;;;;;;4960660;28;20069;-57
2023/07/08 12:40:17;;;;;;;7.97;4.60;;;31.50;31.90;;;;;;4963220;28;20062;-57
2023/07/08 12:42:45;;;;;;;8.35;4.65;;;31.50;32.00;;;;;;4959045;28;20050;-58
2023/07/08 12:45:18;;;;;;;7.72;4.80;;;31.60;31.90;;;;;;4962150;28;20046;-56
2023/07/08 12:47:45;;;;;;;7.85;4.70;;;31.60;32.30;;;;;;4962895;28;20051;-53
2023/07/08 12:50:14;;;;;;;7.35;4.72;;;31.70;32.10;;;;;;4962178;28;20054;-57
2023/07/08 12:52:44;;;;;;;9.45;4.95;;;31.70;32.80;;;;;;4961686;28;20061;-58
2023/07/08 12:55:12;;;;;;;6.72;4.72;;;31.80;32.20;;;;;;4963149;28;20054;-58
2023/07/08 12:57:44;;;;;;;10.82;4.90;;;31.80;31.70;;;;;;4962471;28;20061;-57
2023/07/08 13:00:15;;;;;;;9.75;4.90;;;31.80;31.70;;;;;;4959588;28;20074;-58
2023/07/08 13:02:46;;;;;;;7.03;4.85;;;31.90;32.00;;;;;;4959504;28;20055;-56
2023/07/08 13:05:13;;;;;;;11.15;5.05;;;31.90;31.70;;;;;;4958060;28;20070;-55
2023/07/08 13:07:43;;;;;;;8.02;4.85;;;31.90;31.40;;;;;;4961092;28;20055;-57